sensor_id;sensor_type;location;lat;lon;timestamp;temperature;humidity
44729;DHT22;30457;53.590;9.922;2024-01-27T00:04:22;9.60;60.10
44729;DHT22;30457;53.590;9.922;2024-01-27T00:08:48;9.60;60.10
44729;DHT22;30457;53.590;9.922;2024-01-27T00:13:13;9.70;60.10
44729;DHT22;30457;53.590;9.922;2024-01-27T00:17:39;9.70;60.00
44729;DHT22;30457;53.590;9.922;2024-01-27T00:22:06;9.70;59.90
44729;DHT22;30457;53.590;9.922;2024-01-27T00:26:31;9.70;59.90
44729;DHT22;30457;53.590;9.922;2024-01-27T00:30:57;9.70;59.90
44729;DHT22;30457;53.590;9.922;2024-01-27T00:35:23;9.80;59.80
44729;DHT22;30457;53.590;9.922;2024-01-27T00:39:48;9.80;59.80
44729;DHT22;30457;53.590;9.922;2024-01-27T00:44:14;9.70;59.80
44729;DHT22;30457;53.590;9.922;2024-01-27T00:48:39;9.70;59.90
44729;DHT22;30457;53.590;9.922;2024-01-27T00:53:05;9.80;59.90
44729;DHT22;30457;53.590;9.922;2024-01-27T00:57:31;9.80;59.90
44729;DHT22;30457;53.590;9.922;2024-01-27T01:01:56;9.80;60.00
44729;DHT22;30457;53.590;9.922;2024-01-27T01:06:23;9.80;60.00
44729;DHT22;30457;53.590;9.922;2024-01-27T01:10:48;9.80;60.20
44729;DHT22;30457;53.590;9.922;2024-01-27T01:15:14;9.80;60.30
44729;DHT22;30457;53.590;9.922;2024-01-27T01:19:40;9.80;60.20
44729;DHT22;30457;53.590;9.922;2024-01-27T01:24:06;9.80;60.20
44729;DHT22;30457;53.590;9.922;2024-01-27T01:28:33;9.80;60.20
44729;DHT22;30457;53.590;9.922;2024-01-27T01:32:58;9.80;60.10
44729;DHT22;30457;53.590;9.922;2024-01-27T01:37:24;9.90;60.30
44729;DHT22;30457;53.590;9.922;2024-01-27T01:41:49;9.90;60.30
44729;DHT22;30457;53.590;9.922;2024-01-27T01:46:15;9.90;60.20
44729;DHT22;30457;53.590;9.922;2024-01-27T01:50:40;9.90;60.20
44729;DHT22;30457;53.590;9.922;2024-01-27T01:55:06;9.90;60.20
44729;DHT22;30457;53.590;9.922;2024-01-27T01:59:32;9.90;60.20
44729;DHT22;30457;53.590;9.922;2024-01-27T02:03:58;9.90;60.30
44729;DHT22;30457;53.590;9.922;2024-01-27T02:08:24;9.90;60.30
44729;DHT22;30457;53.590;9.922;2024-01-27T02:12:49;9.90;60.30
44729;DHT22;30457;53.590;9.922;2024-01-27T02:17:15;9.90;60.40
44729;DHT22;30457;53.590;9.922;2024-01-27T02:21:40;9.90;60.30
44729;DHT22;30457;53.590;9.922;2024-01-27T02:26:06;9.90;60.20
44729;DHT22;30457;53.590;9.922;2024-01-27T02:30:31;9.90;60.10
44729;DHT22;30457;53.590;9.922;2024-01-27T02:34:57;9.90;60.10
44729;DHT22;30457;53.590;9.922;2024-01-27T02:39:24;9.90;60.10
44729;DHT22;30457;53.590;9.922;2024-01-27T02:43:50;9.90;60.20
44729;DHT22;30457;53.590;9.922;2024-01-27T02:48:15;9.90;60.30
44729;DHT22;30457;53.590;9.922;2024-01-27T02:52:41;9.90;60.30
44729;DHT22;30457;53.590;9.922;2024-01-27T02:57:06;9.90;60.40
44729;DHT22;30457;53.590;9.922;2024-01-27T03:01:32;9.90;60.40
44729;DHT22;30457;53.590;9.922;2024-01-27T03:05:58;9.90;60.30
44729;DHT22;30457;53.590;9.922;2024-01-27T03:10:23;9.90;60.30
44729;DHT22;30457;53.590;9.922;2024-01-27T03:14:49;9.90;60.30
44729;DHT22;30457;53.590;9.922;2024-01-27T03:19:16;9.90;60.30
44729;DHT22;30457;53.590;9.922;2024-01-27T03:23:41;9.90;60.30
44729;DHT22;30457;53.590;9.922;2024-01-27T03:28:07;9.80;60.30
44729;DHT22;30457;53.590;9.922;2024-01-27T03:32:33;9.90;60.30
44729;DHT22;30457;53.590;9.922;2024-01-27T03:36:58;9.80;60.40
44729;DHT22;30457;53.590;9.922;2024-01-27T03:41:24;9.80;60.30
44729;DHT22;30457;53.590;9.922;2024-01-27T03:45:49;9.80;60.40
44729;DHT22;30457;53.590;9.922;2024-01-27T03:50:15;9.80;60.30
44729;DHT22;30457;53.590;9.922;2024-01-27T03:54:40;9.80;60.40
44729;DHT22;30457;53.590;9.922;2024-01-27T03:59:06;9.80;60.30
44729;DHT22;30457;53.590;9.922;2024-01-27T04:03:34;9.80;60.30
44729;DHT22;30457;53.590;9.922;2024-01-27T04:07:59;9.80;60.30
44729;DHT22;30457;53.590;9.922;2024-01-27T04:12:25;9.70;60.30
44729;DHT22;30457;53.590;9.922;2024-01-27T04:16:51;9.70;60.30
44729;DHT22;30457;53.590;9.922;2024-01-27T04:21:16;9.70;60.10
44729;DHT22;30457;53.590;9.922;2024-01-27T04:25:43;9.70;60.10
44729;DHT22;30457;53.590;9.922;2024-01-27T04:30:11;9.60;60.10
44729;DHT22;30457;53.590;9.922;2024-01-27T04:34:38;9.60;60.10
44729;DHT22;30457;53.590;9.922;2024-01-27T04:39:03;9.60;60.10
44729;DHT22;30457;53.590;9.922;2024-01-27T04:43:29;9.50;60.10
44729;DHT22;30457;53.590;9.922;2024-01-27T04:47:55;9.50;60.30
44729;DHT22;30457;53.590;9.922;2024-01-27T04:52:20;9.40;60.40
44729;DHT22;30457;53.590;9.922;2024-01-27T04:56:46;9.40;60.50
44729;DHT22;30457;53.590;9.922;2024-01-27T05:01:12;9.40;60.60
44729;DHT22;30457;53.590;9.922;2024-01-27T05:05:37;9.40;60.60
44729;DHT22;30457;53.590;9.922;2024-01-27T05:10:06;9.40;60.60
44729;DHT22;30457;53.590;9.922;2024-01-27T05:14:35;9.30;60.50
44729;DHT22;30457;53.590;9.922;2024-01-27T05:19:01;9.30;60.60
44729;DHT22;30457;53.590;9.922;2024-01-27T05:23:27;9.20;60.40
44729;DHT22;30457;53.590;9.922;2024-01-27T05:27:52;9.20;60.50
44729;DHT22;30457;53.590;9.922;2024-01-27T05:32:18;9.10;60.50
44729;DHT22;30457;53.590;9.922;2024-01-27T05:36:44;9.10;61.40
44729;DHT22;30457;53.590;9.922;2024-01-27T05:41:10;9.10;60.60
44729;DHT22;30457;53.590;9.922;2024-01-27T05:45:35;9.00;60.70
44729;DHT22;30457;53.590;9.922;2024-01-27T05:50:01;8.90;60.80
44729;DHT22;30457;53.590;9.922;2024-01-27T05:54:26;8.90;60.80
44729;DHT22;30457;53.590;9.922;2024-01-27T05:58:52;8.90;61.00
44729;DHT22;30457;53.590;9.922;2024-01-27T06:03:18;8.80;61.30
44729;DHT22;30457;53.590;9.922;2024-01-27T06:07:44;8.80;61.50
44729;DHT22;30457;53.590;9.922;2024-01-27T06:12:11;8.80;61.50
44729;DHT22;30457;53.590;9.922;2024-01-27T06:16:37;8.80;61.60
44729;DHT22;30457;53.590;9.922;2024-01-27T06:21:03;8.70;61.50
44729;DHT22;30457;53.590;9.922;2024-01-27T06:25:29;8.70;61.70
44729;DHT22;30457;53.590;9.922;2024-01-27T06:29:54;8.70;61.70
44729;DHT22;30457;53.590;9.922;2024-01-27T06:34:20;8.70;61.70
44729;DHT22;30457;53.590;9.922;2024-01-27T06:38:46;8.60;61.60
44729;DHT22;30457;53.590;9.922;2024-01-27T06:43:12;8.60;61.50
44729;DHT22;30457;53.590;9.922;2024-01-27T06:47:38;8.60;61.50
44729;DHT22;30457;53.590;9.922;2024-01-27T06:52:04;8.50;61.60
44729;DHT22;30457;53.590;9.922;2024-01-27T06:56:29;8.50;61.60
44729;DHT22;30457;53.590;9.922;2024-01-27T07:00:55;8.50;61.60
44729;DHT22;30457;53.590;9.922;2024-01-27T07:05:20;8.50;61.70
44729;DHT22;30457;53.590;9.922;2024-01-27T07:09:46;8.40;61.60
44729;DHT22;30457;53.590;9.922;2024-01-27T07:14:12;8.40;61.70
44729;DHT22;30457;53.590;9.922;2024-01-27T07:18:37;8.40;61.70
44729;DHT22;30457;53.590;9.922;2024-01-27T07:23:03;8.40;61.70
44729;DHT22;30457;53.590;9.922;2024-01-27T07:27:29;8.30;61.80
44729;DHT22;30457;53.590;9.922;2024-01-27T07:31:54;8.30;61.80
44729;DHT22;30457;53.590;9.922;2024-01-27T07:36:20;8.30;61.80
44729;DHT22;30457;53.590;9.922;2024-01-27T07:40:46;8.20;61.70
44729;DHT22;30457;53.590;9.922;2024-01-27T07:45:11;8.20;61.70
44729;DHT22;30457;53.590;9.922;2024-01-27T07:49:38;8.20;61.60
44729;DHT22;30457;53.590;9.922;2024-01-27T07:54:03;8.20;61.80
44729;DHT22;30457;53.590;9.922;2024-01-27T07:58:29;8.20;61.80
44729;DHT22;30457;53.590;9.922;2024-01-27T08:02:55;8.10;62.70
44729;DHT22;30457;53.590;9.922;2024-01-27T08:07:20;8.10;62.00
44729;DHT22;30457;53.590;9.922;2024-01-27T08:11:46;8.10;62.10
44729;DHT22;30457;53.590;9.922;2024-01-27T08:16:16;8.10;62.00
44729;DHT22;30457;53.590;9.922;2024-01-27T08:20:42;8.00;61.90
44729;DHT22;30457;53.590;9.922;2024-01-27T08:25:08;8.00;61.90
44729;DHT22;30457;53.590;9.922;2024-01-27T08:29:33;8.10;62.10
44729;DHT22;30457;53.590;9.922;2024-01-27T08:33:59;8.10;62.20
44729;DHT22;30457;53.590;9.922;2024-01-27T08:38:24;8.10;62.30
44729;DHT22;30457;53.590;9.922;2024-01-27T08:42:50;8.10;62.40
44729;DHT22;30457;53.590;9.922;2024-01-27T08:47:15;8.10;62.50
44729;DHT22;30457;53.590;9.922;2024-01-27T08:51:41;8.20;62.50
44729;DHT22;30457;53.590;9.922;2024-01-27T08:56:07;8.20;62.50
44729;DHT22;30457;53.590;9.922;2024-01-27T09:00:32;8.30;62.50
44729;DHT22;30457;53.590;9.922;2024-01-27T09:04:58;8.30;62.50
44729;DHT22;30457;53.590;9.922;2024-01-27T09:09:23;8.40;62.50
44729;DHT22;30457;53.590;9.922;2024-01-27T09:13:49;8.40;62.40
44729;DHT22;30457;53.590;9.922;2024-01-27T09:18:17;8.50;62.40
44729;DHT22;30457;53.590;9.922;2024-01-27T09:22:42;8.60;62.40
44729;DHT22;30457;53.590;9.922;2024-01-27T09:27:10;8.70;62.40
44729;DHT22;30457;53.590;9.922;2024-01-27T09:31:35;8.80;62.30
44729;DHT22;30457;53.590;9.922;2024-01-27T09:36:01;8.80;62.00
44729;DHT22;30457;53.590;9.922;2024-01-27T09:40:26;8.90;62.60
44729;DHT22;30457;53.590;9.922;2024-01-27T09:44:53;9.00;61.80
44729;DHT22;30457;53.590;9.922;2024-01-27T09:49:21;9.10;61.60
44729;DHT22;30457;53.590;9.922;2024-01-27T09:53:49;9.20;61.70
44729;DHT22;30457;53.590;9.922;2024-01-27T09:58:16;9.30;61.60
44729;DHT22;30457;53.590;9.922;2024-01-27T10:02:45;9.30;61.50
44729;DHT22;30457;53.590;9.922;2024-01-27T10:07:11;9.40;61.20
44729;DHT22;30457;53.590;9.922;2024-01-27T10:11:39;9.50;61.30
44729;DHT22;30457;53.590;9.922;2024-01-27T10:16:08;9.60;61.00
44729;DHT22;30457;53.590;9.922;2024-01-27T10:20:34;9.70;60.70
44729;DHT22;30457;53.590;9.922;2024-01-27T10:24:59;9.70;60.80
44729;DHT22;30457;53.590;9.922;2024-01-27T10:29:27;9.80;60.60
44729;DHT22;30457;53.590;9.922;2024-01-27T10:33:54;9.80;60.50
44729;DHT22;30457;53.590;9.922;2024-01-27T10:38:20;9.90;60.20
44729;DHT22;30457;53.590;9.922;2024-01-27T10:42:46;9.90;60.20
44729;DHT22;30457;53.590;9.922;2024-01-27T10:47:15;10.00;60.20
44729;DHT22;30457;53.590;9.922;2024-01-27T10:51:46;10.00;59.80
44729;DHT22;30457;53.590;9.922;2024-01-27T10:56:15;10.10;59.80
44729;DHT22;30457;53.590;9.922;2024-01-27T11:00:43;10.10;59.90
44729;DHT22;30457;53.590;9.922;2024-01-27T11:05:10;10.20;59.70
44729;DHT22;30457;53.590;9.922;2024-01-27T11:09:36;10.20;59.70
44729;DHT22;30457;53.590;9.922;2024-01-27T11:14:02;10.30;59.40
44729;DHT22;30457;53.590;9.922;2024-01-27T11:18:29;10.30;59.50
44729;DHT22;30457;53.590;9.922;2024-01-27T11:22:55;10.40;59.60
44729;DHT22;30457;53.590;9.922;2024-01-27T11:27:27;10.50;59.40
44729;DHT22;30457;53.590;9.922;2024-01-27T11:31:54;10.60;59.30
44729;DHT22;30457;53.590;9.922;2024-01-27T11:36:24;10.60;59.20
44729;DHT22;30457;53.590;9.922;2024-01-27T11:40:50;10.80;58.90
44729;DHT22;30457;53.590;9.922;2024-01-27T11:45:15;10.80;59.40
44729;DHT22;30457;53.590;9.922;2024-01-27T11:49:42;10.90;58.80
44729;DHT22;30457;53.590;9.922;2024-01-27T11:54:08;11.00;58.90
44729;DHT22;30457;53.590;9.922;2024-01-27T11:58:33;11.20;58.40
44729;DHT22;30457;53.590;9.922;2024-01-27T12:02:59;11.20;58.20
44729;DHT22;30457;53.590;9.922;2024-01-27T12:07:26;11.30;58.10
44729;DHT22;30457;53.590;9.922;2024-01-27T12:11:52;11.40;58.20
44729;DHT22;30457;53.590;9.922;2024-01-27T12:16:18;11.40;58.00
44729;DHT22;30457;53.590;9.922;2024-01-27T12:20:44;11.50;57.40
44729;DHT22;30457;53.590;9.922;2024-01-27T12:25:13;11.60;57.70
44729;DHT22;30457;53.590;9.922;2024-01-27T12:29:43;11.60;57.40
44729;DHT22;30457;53.590;9.922;2024-01-27T12:34:08;11.70;57.70
44729;DHT22;30457;53.590;9.922;2024-01-27T12:38:34;11.70;57.50
44729;DHT22;30457;53.590;9.922;2024-01-27T12:43:00;11.80;57.30
44729;DHT22;30457;53.590;9.922;2024-01-27T12:47:25;11.80;57.00
44729;DHT22;30457;53.590;9.922;2024-01-27T12:51:51;11.80;56.90
44729;DHT22;30457;53.590;9.922;2024-01-27T12:56:17;11.90;56.70
44729;DHT22;30457;53.590;9.922;2024-01-27T13:00:43;11.90;56.80
44729;DHT22;30457;53.590;9.922;2024-01-27T13:05:08;11.90;56.90
44729;DHT22;30457;53.590;9.922;2024-01-27T13:09:36;11.90;57.00
44729;DHT22;30457;53.590;9.922;2024-01-27T13:14:02;12.00;56.80
44729;DHT22;30457;53.590;9.922;2024-01-27T13:18:27;12.00;56.60
44729;DHT22;30457;53.590;9.922;2024-01-27T13:22:53;12.00;56.40
44729;DHT22;30457;53.590;9.922;2024-01-27T13:27:19;12.00;56.70
44729;DHT22;30457;53.590;9.922;2024-01-27T13:31:45;12.00;56.30
44729;DHT22;30457;53.590;9.922;2024-01-27T13:36:10;12.00;56.40
44729;DHT22;30457;53.590;9.922;2024-01-27T13:40:36;12.00;56.50
44729;DHT22;30457;53.590;9.922;2024-01-27T13:45:02;12.00;56.60
44729;DHT22;30457;53.590;9.922;2024-01-27T13:49:28;12.00;56.50
44729;DHT22;30457;53.590;9.922;2024-01-27T13:53:53;12.00;56.50
44729;DHT22;30457;53.590;9.922;2024-01-27T13:58:19;11.90;56.50
44729;DHT22;30457;53.590;9.922;2024-01-27T14:02:45;12.00;56.50
44729;DHT22;30457;53.590;9.922;2024-01-27T14:07:11;11.90;56.70
44729;DHT22;30457;53.590;9.922;2024-01-27T14:11:37;11.80;56.70
44729;DHT22;30457;53.590;9.922;2024-01-27T14:16:02;11.80;56.70
44729;DHT22;30457;53.590;9.922;2024-01-27T14:20:28;11.70;56.80
44729;DHT22;30457;53.590;9.922;2024-01-27T14:24:54;11.70;56.80
44729;DHT22;30457;53.590;9.922;2024-01-27T14:29:20;11.70;57.00
44729;DHT22;30457;53.590;9.922;2024-01-27T14:33:45;11.60;57.10
44729;DHT22;30457;53.590;9.922;2024-01-27T14:38:11;11.60;57.20
44729;DHT22;30457;53.590;9.922;2024-01-27T14:42:37;11.60;57.30
44729;DHT22;30457;53.590;9.922;2024-01-27T14:47:05;11.60;57.30
44729;DHT22;30457;53.590;9.922;2024-01-27T14:51:30;11.60;57.30
44729;DHT22;30457;53.590;9.922;2024-01-27T14:55:56;11.60;57.40
44729;DHT22;30457;53.590;9.922;2024-01-27T15:00:22;11.60;57.40
44729;DHT22;30457;53.590;9.922;2024-01-27T15:04:47;11.60;57.40
44729;DHT22;30457;53.590;9.922;2024-01-27T15:09:13;11.60;57.30
44729;DHT22;30457;53.590;9.922;2024-01-27T15:13:41;11.60;57.40
44729;DHT22;30457;53.590;9.922;2024-01-27T15:18:07;11.60;57.40
44729;DHT22;30457;53.590;9.922;2024-01-27T15:22:33;11.50;57.30
44729;DHT22;30457;53.590;9.922;2024-01-27T15:26:59;11.50;57.30
44729;DHT22;30457;53.590;9.922;2024-01-27T15:31:24;11.40;57.30
44729;DHT22;30457;53.590;9.922;2024-01-27T15:35:50;11.40;57.30
44729;DHT22;30457;53.590;9.922;2024-01-27T15:40:16;11.40;57.30
44729;DHT22;30457;53.590;9.922;2024-01-27T15:44:42;11.30;57.20
44729;DHT22;30457;53.590;9.922;2024-01-27T15:49:07;11.30;57.30
44729;DHT22;30457;53.590;9.922;2024-01-27T15:53:33;11.20;57.80
44729;DHT22;30457;53.590;9.922;2024-01-27T15:57:59;11.20;57.30
44729;DHT22;30457;53.590;9.922;2024-01-27T16:02:24;11.20;57.30
44729;DHT22;30457;53.590;9.922;2024-01-27T16:06:50;11.10;57.30
44729;DHT22;30457;53.590;9.922;2024-01-27T16:11:15;11.00;57.30
44729;DHT22;30457;53.590;9.922;2024-01-27T16:15:41;11.00;57.40
44729;DHT22;30457;53.590;9.922;2024-01-27T16:20:07;11.00;57.50
44729;DHT22;30457;53.590;9.922;2024-01-27T16:24:32;10.90;57.50
44729;DHT22;30457;53.590;9.922;2024-01-27T16:28:58;10.80;57.50
44729;DHT22;30457;53.590;9.922;2024-01-27T16:33:25;10.80;57.60
44729;DHT22;30457;53.590;9.922;2024-01-27T16:37:50;10.70;57.70
44729;DHT22;30457;53.590;9.922;2024-01-27T16:42:16;10.70;57.70
44729;DHT22;30457;53.590;9.922;2024-01-27T16:46:42;10.60;57.80
44729;DHT22;30457;53.590;9.922;2024-01-27T16:51:10;10.60;58.40
44729;DHT22;30457;53.590;9.922;2024-01-27T16:55:35;10.60;58.00
44729;DHT22;30457;53.590;9.922;2024-01-27T17:00:03;10.50;58.00
44729;DHT22;30457;53.590;9.922;2024-01-27T17:04:28;10.50;58.00
44729;DHT22;30457;53.590;9.922;2024-01-27T17:08:54;10.40;58.10
44729;DHT22;30457;53.590;9.922;2024-01-27T17:13:20;10.40;58.10
44729;DHT22;30457;53.590;9.922;2024-01-27T17:17:45;10.30;58.10
44729;DHT22;30457;53.590;9.922;2024-01-27T17:22:11;10.30;58.20
44729;DHT22;30457;53.590;9.922;2024-01-27T17:26:36;10.20;58.10
44729;DHT22;30457;53.590;9.922;2024-01-27T17:31:03;10.20;58.20
44729;DHT22;30457;53.590;9.922;2024-01-27T17:35:29;10.10;58.20
44729;DHT22;30457;53.590;9.922;2024-01-27T17:39:54;10.10;58.20
44729;DHT22;30457;53.590;9.922;2024-01-27T17:44:20;10.10;58.20
44729;DHT22;30457;53.590;9.922;2024-01-27T17:48:46;10.00;58.30
44729;DHT22;30457;53.590;9.922;2024-01-27T17:53:11;10.00;58.40
44729;DHT22;30457;53.590;9.922;2024-01-27T17:57:42;9.90;58.40
44729;DHT22;30457;53.590;9.922;2024-01-27T18:02:08;9.90;58.50
44729;DHT22;30457;53.590;9.922;2024-01-27T18:06:34;9.80;58.40
44729;DHT22;30457;53.590;9.922;2024-01-27T18:10:59;9.80;58.40
44729;DHT22;30457;53.590;9.922;2024-01-27T18:15:26;9.80;58.40
44729;DHT22;30457;53.590;9.922;2024-01-27T18:19:51;9.70;58.40
44729;DHT22;30457;53.590;9.922;2024-01-27T18:24:17;9.70;58.50
44729;DHT22;30457;53.590;9.922;2024-01-27T18:28:42;9.60;58.60
44729;DHT22;30457;53.590;9.922;2024-01-27T18:33:08;9.60;58.50
44729;DHT22;30457;53.590;9.922;2024-01-27T18:37:34;9.50;58.50
44729;DHT22;30457;53.590;9.922;2024-01-27T18:42:01;9.50;58.60
44729;DHT22;30457;53.590;9.922;2024-01-27T18:46:26;9.40;58.60
44729;DHT22;30457;53.590;9.922;2024-01-27T18:50:52;9.40;58.70
44729;DHT22;30457;53.590;9.922;2024-01-27T18:55:18;9.30;58.80
44729;DHT22;30457;53.590;9.922;2024-01-27T18:59:43;9.30;58.90
44729;DHT22;30457;53.590;9.922;2024-01-27T19:04:09;9.20;58.90
44729;DHT22;30457;53.590;9.922;2024-01-27T19:08:35;9.20;58.90
44729;DHT22;30457;53.590;9.922;2024-01-27T19:13:00;9.20;59.00
44729;DHT22;30457;53.590;9.922;2024-01-27T19:17:26;9.10;58.90
44729;DHT22;30457;53.590;9.922;2024-01-27T19:21:51;9.10;59.00
44729;DHT22;30457;53.590;9.922;2024-01-27T19:26:18;9.10;59.10
44729;DHT22;30457;53.590;9.922;2024-01-27T19:30:43;9.00;59.20
44729;DHT22;30457;53.590;9.922;2024-01-27T19:35:09;9.00;59.20
44729;DHT22;30457;53.590;9.922;2024-01-27T19:39:34;9.00;59.30
44729;DHT22;30457;53.590;9.922;2024-01-27T19:44:00;9.00;59.30
44729;DHT22;30457;53.590;9.922;2024-01-27T19:48:25;8.90;59.40
44729;DHT22;30457;53.590;9.922;2024-01-27T19:52:51;8.90;59.40
44729;DHT22;30457;53.590;9.922;2024-01-27T19:57:17;8.90;59.40
44729;DHT22;30457;53.590;9.922;2024-01-27T20:01:43;8.90;59.40
44729;DHT22;30457;53.590;9.922;2024-01-27T20:06:08;8.80;59.30
44729;DHT22;30457;53.590;9.922;2024-01-27T20:10:35;8.80;59.20
44729;DHT22;30457;53.590;9.922;2024-01-27T20:15:01;8.80;59.20
44729;DHT22;30457;53.590;9.922;2024-01-27T20:19:27;8.80;59.30
44729;DHT22;30457;53.590;9.922;2024-01-27T20:23:52;8.70;59.20
44729;DHT22;30457;53.590;9.922;2024-01-27T20:28:18;8.70;59.20
44729;DHT22;30457;53.590;9.922;2024-01-27T20:32:44;8.70;59.30
44729;DHT22;30457;53.590;9.922;2024-01-27T20:37:10;8.60;59.10
44729;DHT22;30457;53.590;9.922;2024-01-27T20:41:35;8.60;59.00
44729;DHT22;30457;53.590;9.922;2024-01-27T20:46:01;8.60;59.10
44729;DHT22;30457;53.590;9.922;2024-01-27T20:50:28;8.50;59.10
44729;DHT22;30457;53.590;9.922;2024-01-27T20:54:54;8.50;59.20
44729;DHT22;30457;53.590;9.922;2024-01-27T20:59:20;8.40;59.30
44729;DHT22;30457;53.590;9.922;2024-01-27T21:03:45;8.40;59.30
44729;DHT22;30457;53.590;9.922;2024-01-27T21:08:11;8.30;59.30
44729;DHT22;30457;53.590;9.922;2024-01-27T21:12:37;8.30;59.40
44729;DHT22;30457;53.590;9.922;2024-01-27T21:17:03;8.30;59.50
44729;DHT22;30457;53.590;9.922;2024-01-27T21:21:28;8.20;59.50
44729;DHT22;30457;53.590;9.922;2024-01-27T21:25:54;8.20;59.50
44729;DHT22;30457;53.590;9.922;2024-01-27T21:30:20;8.20;59.50
44729;DHT22;30457;53.590;9.922;2024-01-27T21:34:46;8.10;59.50
44729;DHT22;30457;53.590;9.922;2024-01-27T21:39:11;8.10;59.60
44729;DHT22;30457;53.590;9.922;2024-01-27T21:43:37;8.10;59.60
44729;DHT22;30457;53.590;9.922;2024-01-27T21:48:03;8.00;59.50
44729;DHT22;30457;53.590;9.922;2024-01-27T21:52:31;8.00;59.50
44729;DHT22;30457;53.590;9.922;2024-01-27T21:56:57;8.00;59.60
44729;DHT22;30457;53.590;9.922;2024-01-27T22:01:25;7.90;59.50
44729;DHT22;30457;53.590;9.922;2024-01-27T22:05:51;7.90;59.50
44729;DHT22;30457;53.590;9.922;2024-01-27T22:10:18;7.90;59.60
44729;DHT22;30457;53.590;9.922;2024-01-27T22:14:44;7.90;59.50
44729;DHT22;30457;53.590;9.922;2024-01-27T22:19:10;7.80;59.50
44729;DHT22;30457;53.590;9.922;2024-01-27T22:23:36;7.80;59.60
44729;DHT22;30457;53.590;9.922;2024-01-27T22:28:03;7.80;59.70
44729;DHT22;30457;53.590;9.922;2024-01-27T22:32:31;7.70;59.60
44729;DHT22;30457;53.590;9.922;2024-01-27T22:36:59;7.70;59.70
44729;DHT22;30457;53.590;9.922;2024-01-27T22:41:25;7.70;59.70
44729;DHT22;30457;53.590;9.922;2024-01-27T22:45:51;7.60;59.70
44729;DHT22;30457;53.590;9.922;2024-01-27T22:50:21;7.60;59.70
44729;DHT22;30457;53.590;9.922;2024-01-27T22:54:47;7.60;59.70
44729;DHT22;30457;53.590;9.922;2024-01-27T22:59:13;7.60;59.70
44729;DHT22;30457;53.590;9.922;2024-01-27T23:03:39;7.50;59.60
44729;DHT22;30457;53.590;9.922;2024-01-27T23:08:05;7.50;59.70
44729;DHT22;30457;53.590;9.922;2024-01-27T23:12:30;7.50;59.70
44729;DHT22;30457;53.590;9.922;2024-01-27T23:16:56;7.40;59.70
44729;DHT22;30457;53.590;9.922;2024-01-27T23:21:21;7.40;59.70
44729;DHT22;30457;53.590;9.922;2024-01-27T23:25:47;7.40;59.70
44729;DHT22;30457;53.590;9.922;2024-01-27T23:30:13;7.40;59.70
44729;DHT22;30457;53.590;9.922;2024-01-27T23:34:40;7.30;59.70
44729;DHT22;30457;53.590;9.922;2024-01-27T23:39:06;7.30;59.80
44729;DHT22;30457;53.590;9.922;2024-01-27T23:43:31;7.30;59.80
44729;DHT22;30457;53.590;9.922;2024-01-27T23:47:57;7.20;59.80
44729;DHT22;30457;53.590;9.922;2024-01-27T23:52:23;7.20;59.80
44729;DHT22;30457;53.590;9.922;2024-01-27T23:56:50;7.20;60.50
